sensor_id;sensor_type;location;lat;lon;timestamp;P1;durP1;ratioP1;P2;durP2;ratioP2
67049;SDS011;53955;52.442;13.284;2023-07-20T00:01:20;3.33;;;2.60;;
67049;SDS011;53955;52.442;13.284;2023-07-20T00:03:46;4.80;;;2.70;;
67049;SDS011;53955;52.442;13.284;2023-07-20T00:06:19;3.60;;;2.80;;
67049;SDS011;53955;52.442;13.284;2023-07-20T00:08:46;5.25;;;2.72;;
67049;SDS011;53955;52.442;13.284;2023-07-20T00:11:13;4.00;;;2.70;;
67049;SDS011;53955;52.442;13.284;2023-07-20T00:13:41;4.43;;;2.80;;
67049;SDS011;53955;52.442;13.284;2023-07-20T00:16:07;5.50;;;2.92;;
67049;SDS011;53955;52.442;13.284;2023-07-20T00:18:34;5.55;;;3.30;;
67049;SDS011;53955;52.442;13.284;2023-07-20T00:21:00;6.07;;;3.50;;
67049;SDS011;53955;52.442;13.284;2023-07-20T00:23:27;5.13;;;3.33;;
67049;SDS011;53955;52.442;13.284;2023-07-20T00:25:54;4.20;;;3.13;;
67049;SDS011;53955;52.442;13.284;2023-07-20T00:28:21;5.07;;;3.15;;
67049;SDS011;53955;52.442;13.284;2023-07-20T00:30:49;5.57;;;3.22;;
67049;SDS011;53955;52.442;13.284;2023-07-20T00:33:16;4.22;;;3.15;;
67049;SDS011;53955;52.442;13.284;2023-07-20T00:35:43;5.05;;;3.17;;
67049;SDS011;53955;52.442;13.284;2023-07-20T00:38:10;7.88;;;3.28;;
67049;SDS011;53955;52.442;13.284;2023-07-20T00:40:36;4.60;;;3.33;;
67049;SDS011;53955;52.442;13.284;2023-07-20T00:43:03;3.95;;;2.85;;
67049;SDS011;53955;52.442;13.284;2023-07-20T00:45:30;5.53;;;3.25;;
67049;SDS011;53955;52.442;13.284;2023-07-20T00:47:58;4.38;;;3.38;;
67049;SDS011;53955;52.442;13.284;2023-07-20T00:50:27;5.78;;;3.03;;
67049;SDS011;53955;52.442;13.284;2023-07-20T00:52:55;4.45;;;2.67;;
67049;SDS011;53955;52.442;13.284;2023-07-20T00:55:22;6.68;;;3.15;;
67049;SDS011;53955;52.442;13.284;2023-07-20T00:57:50;7.88;;;3.70;;
67049;SDS011;53955;52.442;13.284;2023-07-20T01:00:17;6.43;;;3.00;;
67049;SDS011;53955;52.442;13.284;2023-07-20T01:02:44;3.92;;;3.47;;
67049;SDS011;53955;52.442;13.284;2023-07-20T01:05:12;3.95;;;3.28;;
67049;SDS011;53955;52.442;13.284;2023-07-20T01:07:42;7.93;;;3.30;;
67049;SDS011;53955;52.442;13.284;2023-07-20T01:10:17;4.85;;;3.47;;
67049;SDS011;53955;52.442;13.284;2023-07-20T01:12:47;4.10;;;3.25;;
67049;SDS011;53955;52.442;13.284;2023-07-20T01:15:17;4.93;;;3.55;;
67049;SDS011;53955;52.442;13.284;2023-07-20T01:17:44;5.07;;;3.72;;
67049;SDS011;53955;52.442;13.284;2023-07-20T01:20:14;8.23;;;3.53;;
67049;SDS011;53955;52.442;13.284;2023-07-20T01:22:48;4.88;;;3.60;;
67049;SDS011;53955;52.442;13.284;2023-07-20T01:25:34;4.40;;;3.60;;
67049;SDS011;53955;52.442;13.284;2023-07-20T01:28:40;5.68;;;3.80;;
67049;SDS011;53955;52.442;13.284;2023-07-20T01:31:22;6.03;;;3.70;;
67049;SDS011;53955;52.442;13.284;2023-07-20T01:33:52;5.53;;;3.78;;
67049;SDS011;53955;52.442;13.284;2023-07-20T01:36:21;4.55;;;3.55;;
67049;SDS011;53955;52.442;13.284;2023-07-20T01:38:49;5.35;;;3.67;;
67049;SDS011;53955;52.442;13.284;2023-07-20T01:41:17;6.03;;;3.90;;
67049;SDS011;53955;52.442;13.284;2023-07-20T01:43:44;6.30;;;4.03;;
67049;SDS011;53955;52.442;13.284;2023-07-20T01:46:10;6.32;;;4.05;;
67049;SDS011;53955;52.442;13.284;2023-07-20T01:48:38;6.60;;;4.05;;
67049;SDS011;53955;52.442;13.284;2023-07-20T01:51:05;6.07;;;3.85;;
67049;SDS011;53955;52.442;13.284;2023-07-20T01:53:31;7.03;;;3.83;;
67049;SDS011;53955;52.442;13.284;2023-07-20T01:55:58;5.20;;;3.83;;
67049;SDS011;53955;52.442;13.284;2023-07-20T01:58:24;7.78;;;4.28;;
67049;SDS011;53955;52.442;13.284;2023-07-20T02:00:51;4.65;;;3.80;;
67049;SDS011;53955;52.442;13.284;2023-07-20T02:03:18;5.32;;;3.58;;
67049;SDS011;53955;52.442;13.284;2023-07-20T02:05:48;4.30;;;3.78;;
67049;SDS011;53955;52.442;13.284;2023-07-20T02:08:15;4.95;;;3.63;;
67049;SDS011;53955;52.442;13.284;2023-07-20T02:10:44;4.28;;;3.40;;
67049;SDS011;53955;52.442;13.284;2023-07-20T02:13:11;4.20;;;3.33;;
67049;SDS011;53955;52.442;13.284;2023-07-20T02:15:38;8.35;;;3.80;;
67049;SDS011;53955;52.442;13.284;2023-07-20T02:18:05;4.90;;;3.78;;
67049;SDS011;53955;52.442;13.284;2023-07-20T02:20:32;7.25;;;3.72;;
67049;SDS011;53955;52.442;13.284;2023-07-20T02:23:00;5.45;;;3.88;;
67049;SDS011;53955;52.442;13.284;2023-07-20T02:25:26;4.93;;;3.60;;
67049;SDS011;53955;52.442;13.284;2023-07-20T02:27:53;4.35;;;3.60;;
67049;SDS011;53955;52.442;13.284;2023-07-20T02:30:19;4.53;;;3.60;;
67049;SDS011;53955;52.442;13.284;2023-07-20T02:32:46;5.60;;;3.42;;
67049;SDS011;53955;52.442;13.284;2023-07-20T02:35:13;6.63;;;4.05;;
67049;SDS011;53955;52.442;13.284;2023-07-20T02:37:40;6.32;;;4.20;;
67049;SDS011;53955;52.442;13.284;2023-07-20T02:40:09;5.35;;;3.65;;
67049;SDS011;53955;52.442;13.284;2023-07-20T02:42:36;5.63;;;3.63;;
67049;SDS011;53955;52.442;13.284;2023-07-20T02:45:03;5.32;;;4.10;;
67049;SDS011;53955;52.442;13.284;2023-07-20T02:47:30;4.95;;;3.40;;
67049;SDS011;53955;52.442;13.284;2023-07-20T02:49:57;5.03;;;4.00;;
67049;SDS011;53955;52.442;13.284;2023-07-20T02:52:23;6.03;;;4.15;;
67049;SDS011;53955;52.442;13.284;2023-07-20T02:54:50;5.97;;;4.03;;
67049;SDS011;53955;52.442;13.284;2023-07-20T02:57:18;7.93;;;4.00;;
67049;SDS011;53955;52.442;13.284;2023-07-20T02:59:45;5.78;;;4.13;;
67049;SDS011;53955;52.442;13.284;2023-07-20T03:02:11;5.88;;;4.65;;
67049;SDS011;53955;52.442;13.284;2023-07-20T03:04:38;7.90;;;5.43;;
67049;SDS011;53955;52.442;13.284;2023-07-20T03:07:04;5.85;;;4.97;;
67049;SDS011;53955;52.442;13.284;2023-07-20T03:09:32;7.25;;;5.28;;
67049;SDS011;53955;52.442;13.284;2023-07-20T03:11:58;9.85;;;5.18;;
67049;SDS011;53955;52.442;13.284;2023-07-20T03:14:27;8.18;;;5.40;;
67049;SDS011;53955;52.442;13.284;2023-07-20T03:16:53;8.35;;;6.32;;
67049;SDS011;53955;52.442;13.284;2023-07-20T03:19:20;7.10;;;5.55;;
67049;SDS011;53955;52.442;13.284;2023-07-20T03:21:47;7.60;;;5.90;;
67049;SDS011;53955;52.442;13.284;2023-07-20T03:24:13;10.75;;;6.05;;
67049;SDS011;53955;52.442;13.284;2023-07-20T03:26:40;8.38;;;6.00;;
67049;SDS011;53955;52.442;13.284;2023-07-20T03:29:06;8.32;;;6.45;;
67049;SDS011;53955;52.442;13.284;2023-07-20T03:31:34;7.63;;;6.05;;
67049;SDS011;53955;52.442;13.284;2023-07-20T03:34:01;7.63;;;6.05;;
67049;SDS011;53955;52.442;13.284;2023-07-20T03:36:27;9.70;;;6.15;;
67049;SDS011;53955;52.442;13.284;2023-07-20T03:38:54;8.68;;;5.75;;
67049;SDS011;53955;52.442;13.284;2023-07-20T03:41:21;8.60;;;6.25;;
67049;SDS011;53955;52.442;13.284;2023-07-20T03:43:47;8.80;;;5.55;;
67049;SDS011;53955;52.442;13.284;2023-07-20T03:46:14;8.35;;;5.90;;
67049;SDS011;53955;52.442;13.284;2023-07-20T03:48:42;7.25;;;5.60;;
67049;SDS011;53955;52.442;13.284;2023-07-20T03:51:09;8.00;;;5.60;;
67049;SDS011;53955;52.442;13.284;2023-07-20T03:53:35;8.13;;;5.80;;
67049;SDS011;53955;52.442;13.284;2023-07-20T03:56:02;7.57;;;6.60;;
67049;SDS011;53955;52.442;13.284;2023-07-20T03:58:28;10.55;;;5.55;;
67049;SDS011;53955;52.442;13.284;2023-07-20T04:00:57;6.78;;;5.15;;
67049;SDS011;53955;52.442;13.284;2023-07-20T04:03:24;9.15;;;6.00;;
67049;SDS011;53955;52.442;13.284;2023-07-20T04:05:52;9.60;;;6.10;;
67049;SDS011;53955;52.442;13.284;2023-07-20T04:08:19;7.97;;;5.90;;
67049;SDS011;53955;52.442;13.284;2023-07-20T04:10:46;8.05;;;6.53;;
67049;SDS011;53955;52.442;13.284;2023-07-20T04:13:12;7.53;;;6.10;;
67049;SDS011;53955;52.442;13.284;2023-07-20T04:15:39;7.22;;;5.50;;
67049;SDS011;53955;52.442;13.284;2023-07-20T04:18:05;8.25;;;5.80;;
67049;SDS011;53955;52.442;13.284;2023-07-20T04:20:32;10.63;;;6.22;;
67049;SDS011;53955;52.442;13.284;2023-07-20T04:23:00;9.23;;;6.80;;
67049;SDS011;53955;52.442;13.284;2023-07-20T04:25:26;7.22;;;5.90;;
67049;SDS011;53955;52.442;13.284;2023-07-20T04:27:53;11.13;;;6.05;;
67049;SDS011;53955;52.442;13.284;2023-07-20T04:30:20;8.05;;;5.47;;
67049;SDS011;53955;52.442;13.284;2023-07-20T04:32:47;8.95;;;6.00;;
67049;SDS011;53955;52.442;13.284;2023-07-20T04:35:16;8.60;;;6.07;;
67049;SDS011;53955;52.442;13.284;2023-07-20T04:37:44;8.45;;;6.07;;
67049;SDS011;53955;52.442;13.284;2023-07-20T04:40:12;8.40;;;5.78;;
67049;SDS011;53955;52.442;13.284;2023-07-20T04:42:41;7.90;;;6.40;;
67049;SDS011;53955;52.442;13.284;2023-07-20T04:45:08;8.73;;;6.32;;
67049;SDS011;53955;52.442;13.284;2023-07-20T04:47:35;7.38;;;5.72;;
67049;SDS011;53955;52.442;13.284;2023-07-20T04:50:01;8.00;;;6.05;;
67049;SDS011;53955;52.442;13.284;2023-07-20T04:52:28;7.57;;;6.15;;
67049;SDS011;53955;52.442;13.284;2023-07-20T04:54:54;8.05;;;6.20;;
67049;SDS011;53955;52.442;13.284;2023-07-20T04:57:23;6.70;;;5.47;;
67049;SDS011;53955;52.442;13.284;2023-07-20T04:59:50;7.80;;;5.55;;
67049;SDS011;53955;52.442;13.284;2023-07-20T05:02:16;8.85;;;5.88;;
67049;SDS011;53955;52.442;13.284;2023-07-20T05:04:43;9.45;;;5.70;;
67049;SDS011;53955;52.442;13.284;2023-07-20T05:07:09;7.00;;;5.30;;
67049;SDS011;53955;52.442;13.284;2023-07-20T05:09:36;7.60;;;5.70;;
67049;SDS011;53955;52.442;13.284;2023-07-20T05:12:02;6.70;;;5.65;;
67049;SDS011;53955;52.442;13.284;2023-07-20T05:14:31;7.43;;;5.97;;
67049;SDS011;53955;52.442;13.284;2023-07-20T05:16:57;9.55;;;5.53;;
67049;SDS011;53955;52.442;13.284;2023-07-20T05:19:24;8.23;;;4.70;;
67049;SDS011;53955;52.442;13.284;2023-07-20T05:21:51;8.38;;;4.53;;
67049;SDS011;53955;52.442;13.284;2023-07-20T05:24:17;6.03;;;4.20;;
67049;SDS011;53955;52.442;13.284;2023-07-20T05:26:44;7.28;;;4.43;;
67049;SDS011;53955;52.442;13.284;2023-07-20T05:29:10;6.47;;;4.35;;
67049;SDS011;53955;52.442;13.284;2023-07-20T05:31:38;9.07;;;4.43;;
67049;SDS011;53955;52.442;13.284;2023-07-20T05:34:05;7.32;;;4.90;;
67049;SDS011;53955;52.442;13.284;2023-07-20T05:36:31;7.38;;;4.65;;
67049;SDS011;53955;52.442;13.284;2023-07-20T05:38:58;6.35;;;4.80;;
67049;SDS011;53955;52.442;13.284;2023-07-20T05:41:24;7.93;;;5.13;;
67049;SDS011;53955;52.442;13.284;2023-07-20T05:43:51;7.47;;;4.88;;
67049;SDS011;53955;52.442;13.284;2023-07-20T05:46:17;5.85;;;4.82;;
67049;SDS011;53955;52.442;13.284;2023-07-20T05:48:45;7.13;;;4.75;;
67049;SDS011;53955;52.442;13.284;2023-07-20T05:51:12;6.53;;;5.13;;
67049;SDS011;53955;52.442;13.284;2023-07-20T05:53:39;7.80;;;4.50;;
67049;SDS011;53955;52.442;13.284;2023-07-20T05:56:06;6.32;;;5.13;;
67049;SDS011;53955;52.442;13.284;2023-07-20T05:58:35;6.68;;;5.50;;
67049;SDS011;53955;52.442;13.284;2023-07-20T06:01:01;7.93;;;5.32;;
67049;SDS011;53955;52.442;13.284;2023-07-20T06:03:30;10.13;;;5.20;;
67049;SDS011;53955;52.442;13.284;2023-07-20T06:06:00;7.18;;;5.05;;
67049;SDS011;53955;52.442;13.284;2023-07-20T06:08:27;8.05;;;5.57;;
67049;SDS011;53955;52.442;13.284;2023-07-20T06:10:53;7.13;;;4.95;;
67049;SDS011;53955;52.442;13.284;2023-07-20T06:13:20;7.15;;;4.90;;
67049;SDS011;53955;52.442;13.284;2023-07-20T06:15:46;7.15;;;5.57;;
67049;SDS011;53955;52.442;13.284;2023-07-20T06:18:13;7.55;;;5.45;;
67049;SDS011;53955;52.442;13.284;2023-07-20T06:20:39;6.60;;;4.93;;
67049;SDS011;53955;52.442;13.284;2023-07-20T06:23:07;7.20;;;5.10;;
67049;SDS011;53955;52.442;13.284;2023-07-20T06:25:34;8.55;;;5.38;;
67049;SDS011;53955;52.442;13.284;2023-07-20T06:28:00;7.85;;;5.30;;
67049;SDS011;53955;52.442;13.284;2023-07-20T06:30:29;7.47;;;5.28;;
67049;SDS011;53955;52.442;13.284;2023-07-20T06:32:55;7.22;;;4.82;;
67049;SDS011;53955;52.442;13.284;2023-07-20T06:35:22;6.93;;;5.30;;
67049;SDS011;53955;52.442;13.284;2023-07-20T06:37:48;5.90;;;4.03;;
67049;SDS011;53955;52.442;13.284;2023-07-20T06:40:16;6.13;;;4.47;;
67049;SDS011;53955;52.442;13.284;2023-07-20T06:42:43;6.07;;;4.05;;
67049;SDS011;53955;52.442;13.284;2023-07-20T06:45:10;4.95;;;3.22;;
67049;SDS011;53955;52.442;13.284;2023-07-20T06:47:37;5.63;;;3.80;;
67049;SDS011;53955;52.442;13.284;2023-07-20T06:50:04;3.75;;;3.05;;
67049;SDS011;53955;52.442;13.284;2023-07-20T06:52:32;6.10;;;3.00;;
67049;SDS011;53955;52.442;13.284;2023-07-20T06:54:58;4.40;;;2.60;;
67049;SDS011;53955;52.442;13.284;2023-07-20T06:57:26;6.32;;;2.80;;
67049;SDS011;53955;52.442;13.284;2023-07-20T06:59:53;3.35;;;2.42;;
67049;SDS011;53955;52.442;13.284;2023-07-20T07:02:19;3.70;;;2.63;;
67049;SDS011;53955;52.442;13.284;2023-07-20T07:04:46;3.20;;;2.20;;
67049;SDS011;53955;52.442;13.284;2023-07-20T07:07:13;3.38;;;2.38;;
67049;SDS011;53955;52.442;13.284;2023-07-20T07:09:40;5.70;;;1.95;;
67049;SDS011;53955;52.442;13.284;2023-07-20T07:12:07;3.58;;;2.05;;
67049;SDS011;53955;52.442;13.284;2023-07-20T07:14:35;2.88;;;1.40;;
67049;SDS011;53955;52.442;13.284;2023-07-20T07:17:02;2.90;;;1.50;;
67049;SDS011;53955;52.442;13.284;2023-07-20T07:19:29;2.47;;;1.60;;
67049;SDS011;53955;52.442;13.284;2023-07-20T07:21:56;2.58;;;1.45;;
67049;SDS011;53955;52.442;13.284;2023-07-20T07:24:22;2.08;;;1.30;;
67049;SDS011;53955;52.442;13.284;2023-07-20T07:26:49;3.42;;;1.33;;
67049;SDS011;53955;52.442;13.284;2023-07-20T07:29:15;1.17;;;1.00;;
67049;SDS011;53955;52.442;13.284;2023-07-20T07:31:43;2.38;;;1.15;;
67049;SDS011;53955;52.442;13.284;2023-07-20T07:34:10;1.95;;;1.10;;
67049;SDS011;53955;52.442;13.284;2023-07-20T07:36:36;1.75;;;1.00;;
67049;SDS011;53955;52.442;13.284;2023-07-20T07:39:03;3.22;;;1.55;;
67049;SDS011;53955;52.442;13.284;2023-07-20T07:41:29;3.75;;;1.83;;
67049;SDS011;53955;52.442;13.284;2023-07-20T07:43:56;1.98;;;1.17;;
67049;SDS011;53955;52.442;13.284;2023-07-20T07:46:23;4.40;;;1.55;;
67049;SDS011;53955;52.442;13.284;2023-07-20T07:48:50;3.20;;;1.45;;
67049;SDS011;53955;52.442;13.284;2023-07-20T07:51:18;3.85;;;1.00;;
67049;SDS011;53955;52.442;13.284;2023-07-20T07:53:45;2.22;;;1.00;;
67049;SDS011;53955;52.442;13.284;2023-07-20T07:56:14;1.00;;;0.68;;
67049;SDS011;53955;52.442;13.284;2023-07-20T07:58:41;3.17;;;1.10;;
67049;SDS011;53955;52.442;13.284;2023-07-20T08:01:08;1.17;;;0.93;;
67049;SDS011;53955;52.442;13.284;2023-07-20T08:03:34;1.33;;;0.73;;
67049;SDS011;53955;52.442;13.284;2023-07-20T08:06:03;2.15;;;0.80;;
67049;SDS011;53955;52.442;13.284;2023-07-20T08:08:30;1.60;;;0.95;;
67049;SDS011;53955;52.442;13.284;2023-07-20T08:10:57;1.63;;;0.90;;
67049;SDS011;53955;52.442;13.284;2023-07-20T08:13:24;1.40;;;0.80;;
67049;SDS011;53955;52.442;13.284;2023-07-20T08:15:51;2.40;;;0.70;;
67049;SDS011;53955;52.442;13.284;2023-07-20T08:18:17;1.35;;;0.60;;
67049;SDS011;53955;52.442;13.284;2023-07-20T08:20:44;1.85;;;0.77;;
67049;SDS011;53955;52.442;13.284;2023-07-20T08:23:12;1.48;;;0.90;;
67049;SDS011;53955;52.442;13.284;2023-07-20T08:25:39;0.88;;;0.70;;
67049;SDS011;53955;52.442;13.284;2023-07-20T08:28:08;1.92;;;0.82;;
67049;SDS011;53955;52.442;13.284;2023-07-20T08:30:40;1.33;;;0.80;;
67049;SDS011;53955;52.442;13.284;2023-07-20T08:33:07;1.85;;;1.10;;
67049;SDS011;53955;52.442;13.284;2023-07-20T08:35:34;1.17;;;0.75;;
67049;SDS011;53955;52.442;13.284;2023-07-20T08:38:01;4.93;;;0.90;;
67049;SDS011;53955;52.442;13.284;2023-07-20T08:40:30;1.38;;;0.80;;
67049;SDS011;53955;52.442;13.284;2023-07-20T08:42:58;1.38;;;0.75;;
67049;SDS011;53955;52.442;13.284;2023-07-20T08:45:25;1.60;;;0.80;;
67049;SDS011;53955;52.442;13.284;2023-07-20T08:47:53;1.00;;;0.77;;
67049;SDS011;53955;52.442;13.284;2023-07-20T08:50:21;4.10;;;1.00;;
67049;SDS011;53955;52.442;13.284;2023-07-20T08:52:49;1.75;;;1.05;;
67049;SDS011;53955;52.442;13.284;2023-07-20T08:55:18;1.90;;;0.80;;
67049;SDS011;53955;52.442;13.284;2023-07-20T08:57:48;1.73;;;0.70;;
67049;SDS011;53955;52.442;13.284;2023-07-20T09:00:17;0.60;;;0.50;;
67049;SDS011;53955;52.442;13.284;2023-07-20T09:02:45;0.88;;;0.55;;
67049;SDS011;53955;52.442;13.284;2023-07-20T09:05:13;1.30;;;0.63;;
67049;SDS011;53955;52.442;13.284;2023-07-20T09:07:39;2.25;;;0.68;;
67049;SDS011;53955;52.442;13.284;2023-07-20T09:10:06;1.38;;;0.70;;
67049;SDS011;53955;52.442;13.284;2023-07-20T09:12:34;1.02;;;0.50;;
67049;SDS011;53955;52.442;13.284;2023-07-20T09:15:03;2.78;;;0.60;;
67049;SDS011;53955;52.442;13.284;2023-07-20T09:17:30;1.60;;;0.47;;
67049;SDS011;53955;52.442;13.284;2023-07-20T09:19:56;1.33;;;0.80;;
67049;SDS011;53955;52.442;13.284;2023-07-20T09:22:29;2.20;;;0.70;;
67049;SDS011;53955;52.442;13.284;2023-07-20T09:24:55;1.98;;;0.80;;
67049;SDS011;53955;52.442;13.284;2023-07-20T09:27:22;1.13;;;0.80;;
67049;SDS011;53955;52.442;13.284;2023-07-20T09:29:55;0.52;;;0.50;;
67049;SDS011;53955;52.442;13.284;2023-07-20T09:32:24;1.38;;;0.80;;
67049;SDS011;53955;52.442;13.284;2023-07-20T09:34:50;1.27;;;0.88;;
67049;SDS011;53955;52.442;13.284;2023-07-20T09:37:19;1.83;;;0.68;;
67049;SDS011;53955;52.442;13.284;2023-07-20T09:39:47;0.93;;;0.57;;
67049;SDS011;53955;52.442;13.284;2023-07-20T09:42:14;1.13;;;0.60;;
67049;SDS011;53955;52.442;13.284;2023-07-20T09:44:43;2.58;;;0.80;;
67049;SDS011;53955;52.442;13.284;2023-07-20T09:47:10;1.35;;;0.80;;
67049;SDS011;53955;52.442;13.284;2023-07-20T09:49:40;1.30;;;0.80;;
67049;SDS011;53955;52.442;13.284;2023-07-20T09:52:07;2.45;;;0.80;;
67049;SDS011;53955;52.442;13.284;2023-07-20T09:54:35;4.50;;;0.70;;
67049;SDS011;53955;52.442;13.284;2023-07-20T09:57:04;1.83;;;0.90;;
67049;SDS011;53955;52.442;13.284;2023-07-20T09:59:33;1.17;;;0.90;;
67049;SDS011;53955;52.442;13.284;2023-07-20T10:02:00;1.77;;;1.05;;
67049;SDS011;53955;52.442;13.284;2023-07-20T10:04:31;1.35;;;0.90;;
67049;SDS011;53955;52.442;13.284;2023-07-20T10:07:03;1.98;;;0.90;;
67049;SDS011;53955;52.442;13.284;2023-07-20T10:09:34;2.45;;;1.35;;
67049;SDS011;53955;52.442;13.284;2023-07-20T10:12:05;7.22;;;3.05;;
67049;SDS011;53955;52.442;13.284;2023-07-20T10:14:34;6.18;;;3.55;;
67049;SDS011;53955;52.442;13.284;2023-07-20T10:17:06;2.75;;;1.42;;
67049;SDS011;53955;52.442;13.284;2023-07-20T10:19:39;4.65;;;2.00;;
67049;SDS011;53955;52.442;13.284;2023-07-20T10:22:12;3.25;;;1.55;;
67049;SDS011;53955;52.442;13.284;2023-07-20T10:24:41;3.50;;;1.75;;
67049;SDS011;53955;52.442;13.284;2023-07-20T10:27:10;2.38;;;1.42;;
67049;SDS011;53955;52.442;13.284;2023-07-20T10:29:37;5.00;;;1.13;;
67049;SDS011;53955;52.442;13.284;2023-07-20T10:32:05;3.13;;;1.75;;
67049;SDS011;53955;52.442;13.284;2023-07-20T10:34:33;2.97;;;1.40;;
67049;SDS011;53955;52.442;13.284;2023-07-20T10:36:59;4.32;;;2.10;;
67049;SDS011;53955;52.442;13.284;2023-07-20T10:39:27;2.17;;;1.10;;
67049;SDS011;53955;52.442;13.284;2023-07-20T10:41:59;4.85;;;2.10;;
67049;SDS011;53955;52.442;13.284;2023-07-20T10:44:28;2.75;;;1.30;;
67049;SDS011;53955;52.442;13.284;2023-07-20T10:46:58;4.15;;;1.65;;
67049;SDS011;53955;52.442;13.284;2023-07-20T10:49:26;4.32;;;1.92;;
67049;SDS011;53955;52.442;13.284;2023-07-20T10:51:56;4.10;;;1.98;;
67049;SDS011;53955;52.442;13.284;2023-07-20T10:54:34;8.32;;;3.15;;
67049;SDS011;53955;52.442;13.284;2023-07-20T10:57:28;2.65;;;1.10;;
67049;SDS011;53955;52.442;13.284;2023-07-20T11:00:08;4.63;;;1.45;;
67049;SDS011;53955;52.442;13.284;2023-07-20T11:02:41;1.42;;;1.00;;
67049;SDS011;53955;52.442;13.284;2023-07-20T11:05:31;1.73;;;1.10;;
67049;SDS011;53955;52.442;13.284;2023-07-20T11:07:59;2.42;;;1.42;;
67049;SDS011;53955;52.442;13.284;2023-07-20T11:10:26;2.03;;;1.20;;
67049;SDS011;53955;52.442;13.284;2023-07-20T11:15:45;2.28;;;1.35;;
67049;SDS011;53955;52.442;13.284;2023-07-20T11:18:12;2.42;;;1.08;;
67049;SDS011;53955;52.442;13.284;2023-07-20T11:20:39;2.03;;;1.10;;
67049;SDS011;53955;52.442;13.284;2023-07-20T11:23:07;2.20;;;1.08;;
67049;SDS011;53955;52.442;13.284;2023-07-20T11:25:39;4.20;;;0.90;;
67049;SDS011;53955;52.442;13.284;2023-07-20T11:28:07;1.92;;;0.90;;
67049;SDS011;53955;52.442;13.284;2023-07-20T11:30:35;3.05;;;0.98;;
67049;SDS011;53955;52.442;13.284;2023-07-20T11:33:02;1.50;;;0.90;;
67049;SDS011;53955;52.442;13.284;2023-07-20T11:35:29;2.42;;;1.10;;
67049;SDS011;53955;52.442;13.284;2023-07-20T11:37:55;2.10;;;1.00;;
67049;SDS011;53955;52.442;13.284;2023-07-20T11:40:22;1.48;;;1.10;;
67049;SDS011;53955;52.442;13.284;2023-07-20T11:42:50;2.15;;;0.93;;
67049;SDS011;53955;52.442;13.284;2023-07-20T11:45:17;2.67;;;0.85;;
67049;SDS011;53955;52.442;13.284;2023-07-20T11:47:45;2.30;;;0.80;;
67049;SDS011;53955;52.442;13.284;2023-07-20T11:50:11;2.95;;;0.70;;
67049;SDS011;53955;52.442;13.284;2023-07-20T11:52:39;1.30;;;0.80;;
67049;SDS011;53955;52.442;13.284;2023-07-20T11:55:06;1.95;;;1.00;;
67049;SDS011;53955;52.442;13.284;2023-07-20T11:57:33;1.67;;;0.57;;
67049;SDS011;53955;52.442;13.284;2023-07-20T12:00:02;1.25;;;0.70;;
67049;SDS011;53955;52.442;13.284;2023-07-20T12:02:34;2.00;;;0.70;;
67049;SDS011;53955;52.442;13.284;2023-07-20T12:05:01;0.98;;;0.70;;
67049;SDS011;53955;52.442;13.284;2023-07-20T12:07:28;1.65;;;0.60;;
67049;SDS011;53955;52.442;13.284;2023-07-20T12:10:05;1.50;;;0.70;;
67049;SDS011;53955;52.442;13.284;2023-07-20T12:12:33;1.30;;;0.70;;
67049;SDS011;53955;52.442;13.284;2023-07-20T12:15:17;1.85;;;0.82;;
67049;SDS011;53955;52.442;13.284;2023-07-20T12:17:46;3.28;;;1.17;;
67049;SDS011;53955;52.442;13.284;2023-07-20T12:20:26;1.67;;;0.73;;
67049;SDS011;53955;52.442;13.284;2023-07-20T12:22:55;2.50;;;0.70;;
67049;SDS011;53955;52.442;13.284;2023-07-20T12:25:31;0.70;;;0.43;;
67049;SDS011;53955;52.442;13.284;2023-07-20T12:28:00;0.95;;;0.70;;
67049;SDS011;53955;52.442;13.284;2023-07-20T12:30:29;1.40;;;0.68;;
67049;SDS011;53955;52.442;13.284;2023-07-20T12:32:55;1.30;;;0.60;;
67049;SDS011;53955;52.442;13.284;2023-07-20T12:35:22;1.13;;;0.70;;
67049;SDS011;53955;52.442;13.284;2023-07-20T12:37:48;1.15;;;0.65;;
67049;SDS011;53955;52.442;13.284;2023-07-20T12:40:16;1.20;;;0.70;;
67049;SDS011;53955;52.442;13.284;2023-07-20T12:42:43;0.80;;;0.50;;
67049;SDS011;53955;52.442;13.284;2023-07-20T12:45:10;1.63;;;0.57;;
67049;SDS011;53955;52.442;13.284;2023-07-20T12:47:38;0.80;;;0.50;;
67049;SDS011;53955;52.442;13.284;2023-07-20T12:50:05;1.17;;;0.63;;
67049;SDS011;53955;52.442;13.284;2023-07-20T12:52:35;1.05;;;0.70;;
67049;SDS011;53955;52.442;13.284;2023-07-20T12:55:02;4.32;;;0.88;;
67049;SDS011;53955;52.442;13.284;2023-07-20T12:57:29;1.27;;;0.70;;
67049;SDS011;53955;52.442;13.284;2023-07-20T12:59:56;2.35;;;0.60;;
67049;SDS011;53955;52.442;13.284;2023-07-20T13:02:22;2.47;;;0.60;;
67049;SDS011;53955;52.442;13.284;2023-07-20T13:04:50;0.80;;;0.60;;
67049;SDS011;53955;52.442;13.284;2023-07-20T13:07:17;0.73;;;0.60;;
67049;SDS011;53955;52.442;13.284;2023-07-20T13:09:55;2.00;;;0.60;;
67049;SDS011;53955;52.442;13.284;2023-07-20T13:12:22;0.57;;;0.40;;
67049;SDS011;53955;52.442;13.284;2023-07-20T13:14:49;1.30;;;0.50;;
67049;SDS011;53955;52.442;13.284;2023-07-20T13:17:16;1.00;;;0.50;;
67049;SDS011;53955;52.442;13.284;2023-07-20T13:19:42;0.50;;;0.40;;
67049;SDS011;53955;52.442;13.284;2023-07-20T13:22:11;1.83;;;0.63;;
67049;SDS011;53955;52.442;13.284;2023-07-20T13:24:38;0.90;;;0.50;;
67049;SDS011;53955;52.442;13.284;2023-07-20T13:27:05;1.35;;;0.65;;
67049;SDS011;53955;52.442;13.284;2023-07-20T13:29:32;1.25;;;0.57;;
67049;SDS011;53955;52.442;13.284;2023-07-20T13:31:58;1.00;;;0.60;;
67049;SDS011;53955;52.442;13.284;2023-07-20T13:34:25;2.33;;;0.90;;
67049;SDS011;53955;52.442;13.284;2023-07-20T13:36:52;0.93;;;0.50;;
67049;SDS011;53955;52.442;13.284;2023-07-20T13:39:20;1.08;;;0.57;;
67049;SDS011;53955;52.442;13.284;2023-07-20T13:41:49;0.57;;;0.47;;
67049;SDS011;53955;52.442;13.284;2023-07-20T13:44:15;0.93;;;0.40;;
67049;SDS011;53955;52.442;13.284;2023-07-20T13:46:42;3.38;;;0.50;;
67049;SDS011;53955;52.442;13.284;2023-07-20T13:49:09;5.78;;;0.88;;
67049;SDS011;53955;52.442;13.284;2023-07-20T13:51:35;1.88;;;0.60;;
67049;SDS011;53955;52.442;13.284;2023-07-20T13:54:02;1.63;;;0.50;;
67049;SDS011;53955;52.442;13.284;2023-07-20T13:56:30;2.13;;;0.63;;
67049;SDS011;53955;52.442;13.284;2023-07-20T13:58:56;2.35;;;0.70;;
67049;SDS011;53955;52.442;13.284;2023-07-20T14:01:23;1.42;;;0.60;;
67049;SDS011;53955;52.442;13.284;2023-07-20T14:03:50;1.75;;;0.70;;
67049;SDS011;53955;52.442;13.284;2023-07-20T14:06:17;3.63;;;0.60;;
67049;SDS011;53955;52.442;13.284;2023-07-20T14:08:43;1.50;;;0.60;;
67049;SDS011;53955;52.442;13.284;2023-07-20T14:11:11;0.98;;;0.63;;
67049;SDS011;53955;52.442;13.284;2023-07-20T14:13:39;1.52;;;0.55;;
67049;SDS011;53955;52.442;13.284;2023-07-20T14:16:06;1.85;;;0.60;;
67049;SDS011;53955;52.442;13.284;2023-07-20T14:18:33;1.15;;;0.50;;
67049;SDS011;53955;52.442;13.284;2023-07-20T14:21:00;1.23;;;0.60;;
67049;SDS011;53955;52.442;13.284;2023-07-20T14:23:27;1.95;;;0.55;;
67049;SDS011;53955;52.442;13.284;2023-07-20T14:25:54;1.10;;;0.57;;
67049;SDS011;53955;52.442;13.284;2023-07-20T14:28:21;1.13;;;0.70;;
67049;SDS011;53955;52.442;13.284;2023-07-20T14:30:48;1.20;;;0.60;;
67049;SDS011;53955;52.442;13.284;2023-07-20T14:33:15;0.60;;;0.40;;
67049;SDS011;53955;52.442;13.284;2023-07-20T14:35:42;1.23;;;0.52;;
67049;SDS011;53955;52.442;13.284;2023-07-20T14:38:08;0.85;;;0.40;;
67049;SDS011;53955;52.442;13.284;2023-07-20T14:40:35;1.30;;;0.70;;